Time;durP1;ratioP1;P1;durP2;ratioP2;P2;SDS_P1;SDS_P2;PMS_P1;PMS_P2;Temp;Humidity;BMP_temperature;BMP_pressure;BME280_temperature;BME280_humidity;BME280_pressure;Samples;Min_cycle;Max_cycle;Signal;HPM_P1;HPM_P2
2022/03/11 00:01:28;;;;;;;3.97;2.50;;;;;;;-4.01;80.83;100381.09;5098588;28;20868;-63
2022/03/11 00:03:56;;;;;;;6.47;3.73;;;;;;;-4.08;79.89;100390.19;5099733;28;20444;-55
2022/03/11 00:06:23;;;;;;;6.13;3.60;;;;;;;-4.08;79.95;100384.34;5097857;28;20589;-62
2022/03/11 00:08:51;;;;;;;5.50;2.90;;;;;;;-4.15;80.15;100391.78;5097866;28;20444;-63
2022/03/11 00:11:18;;;;;;;5.47;3.10;;;;;;;-4.16;80.88;100381.78;5095174;28;21063;-55
2022/03/11 00:13:46;;;;;;;8.60;4.00;;;;;;;-4.20;81.72;100385.09;5099429;28;20519;-55
2022/03/11 00:16:13;;;;;;;6.63;3.07;;;;;;;-4.21;81.52;100388.41;5098020;28;20475;-62
2022/03/11 00:18:41;;;;;;;4.80;2.63;;;;;;;-4.15;80.65;100383.47;5095793;28;20447;-62
2022/03/11 00:21:12;;;;;;;5.70;2.87;;;;;;;-4.11;80.05;100385.16;5097454;28;20529;-62
2022/03/11 00:23:40;;;;;;;3.37;2.00;;;;;;;-4.15;80.17;100383.47;5098376;28;20503;-62
2022/03/11 00:26:07;;;;;;;4.80;2.40;;;;;;;-4.13;80.55;100381.81;5098503;28;20552;-54
2022/03/11 00:28:35;;;;;;;4.83;2.20;;;;;;;-4.16;80.23;100381.78;5097827;28;20444;-62
2022/03/11 00:31:02;;;;;;;4.73;2.67;;;;;;;-4.26;79.49;100375.06;5099743;28;20475;-55
2022/03/11 00:33:29;;;;;;;5.37;2.93;;;;;;;-4.23;79.75;100370.09;5098381;28;20451;-55
2022/03/11 00:35:58;;;;;;;4.73;3.03;;;;;;;-4.25;80.52;100372.56;5098868;28;21005;-56
2022/03/11 00:38:26;;;;;;;8.00;3.93;;;;;;;-4.35;79.99;100365.81;5100353;28;20450;-63
2022/03/11 00:40:56;;;;;;;5.03;2.67;;;;;;;-4.30;79.98;100363.34;5100551;28;20478;-57
2022/03/11 00:43:24;;;;;;;5.17;3.00;;;;;;;-4.28;80.19;100369.19;5097930;28;20479;-63
2022/03/11 00:45:51;;;;;;;5.23;2.93;;;;;;;-4.31;79.79;100362.50;5099391;28;20491;-63
2022/03/11 00:48:17;;;;;;;5.00;3.40;;;;;;;-4.44;79.89;100361.59;5098721;28;20980;-62
2022/03/11 00:50:45;;;;;;;5.97;2.67;;;;;;;-4.41;79.33;100363.28;5099131;28;20489;-56
2022/03/11 00:53:14;;;;;;;3.20;1.70;;;;;;;-4.51;78.70;100362.31;5097443;28;20440;-62
2022/03/11 00:55:41;;;;;;;8.90;3.73;;;;;;;-4.46;79.60;100359.88;5098482;28;20479;-56
2022/03/11 00:58:09;;;;;;;5.10;2.73;;;;;;;-4.48;78.38;100359.03;5097927;28;20457;-55
2022/03/11 01:00:36;;;;;;;5.10;2.57;;;;;;;-4.44;77.30;100364.06;5098361;28;20490;-55
2022/03/11 01:03:04;;;;;;;8.40;2.73;;;;;;;-4.43;76.58;100363.25;5098561;28;20458;-62
2022/03/11 01:05:32;;;;;;;5.10;3.17;;;;;;;-4.51;78.42;100364.81;5097680;28;20950;-63
2022/03/11 01:07:59;;;;;;;4.27;2.53;;;;;;;-4.60;77.75;100372.22;5098800;28;20944;-63
2022/03/11 01:10:28;;;;;;;7.63;3.60;;;;;;;-4.56;78.98;100362.31;5097386;28;20543;-55
2022/03/11 01:12:55;;;;;;;2.63;2.23;;;;;;;-4.51;78.67;100359.84;5098427;28;20481;-63
2022/03/11 01:15:22;;;;;;;5.83;2.70;;;;;;;-4.62;77.68;100364.75;5098154;28;20526;-63
2022/03/11 01:17:49;;;;;;;11.30;4.17;;;;;;;-4.64;78.65;100355.56;5096949;28;20440;-63
2022/03/11 01:20:16;;;;;;;4.63;2.87;;;;;;;-4.61;78.76;100368.06;5099355;28;20476;-63
2022/03/11 01:22:44;;;;;;;4.97;2.73;;;;;;;-4.59;79.00;100356.44;5097550;28;20436;-56
2022/03/11 01:25:11;;;;;;;6.33;3.13;;;;;;;-4.68;78.74;100354.69;5095881;28;20499;-55
2022/03/11 01:27:40;;;;;;;5.73;3.37;;;;;;;-4.59;78.36;100356.44;5097378;28;20987;-63
2022/03/11 01:30:09;;;;;;;9.57;4.23;;;;;;;-4.71;79.48;100366.28;5097968;28;20517;-62
2022/03/11 01:32:36;;;;;;;6.63;3.70;;;;;;;-4.76;78.83;100367.91;5095216;28;20452;-62
2022/03/11 01:35:05;;;;;;;5.40;2.93;;;;;;;-4.73;79.75;100365.47;5095877;28;20520;-55
2022/03/11 01:37:32;;;;;;;6.23;3.47;;;;;;;-4.68;79.03;100366.31;5096773;28;20965;-56
2022/03/11 01:39:59;;;;;;;4.37;2.63;;;;;;;-4.69;78.34;100369.66;5097834;28;20562;-62
2022/03/11 01:42:26;;;;;;;6.83;3.10;;;;;;;-4.81;77.62;100366.19;5095422;28;20451;-62
2022/03/11 01:44:54;;;;;;;6.40;3.63;;;;;;;-4.70;78.41;100365.50;5097219;28;20480;-55
2022/03/11 01:47:21;;;;;;;3.17;1.77;;;;;;;-4.77;78.43;100369.56;5096179;28;20457;-55
2022/03/11 01:49:49;;;;;;;5.03;2.30;;;;;;;-4.66;78.73;100372.16;5095068;28;20866;-62
2022/03/11 01:52:17;;;;;;;7.10;3.13;;;;;;;-4.62;78.54;100371.41;5095482;28;20443;-54
2022/03/11 01:54:45;;;;;;;5.10;2.87;;;;;;;-4.63;79.02;100363.03;5096873;28;20459;-55
2022/03/11 01:57:14;;;;;;;6.73;3.80;;;;;;;-4.61;78.71;100373.88;5096432;28;20592;-55
2022/03/11 01:59:41;;;;;;;6.57;3.40;;;;;;;-4.69;77.88;100372.13;5097860;28;20435;-55
2022/03/11 02:02:10;;;;;;;8.27;3.83;;;;;;;-4.77;78.28;100362.06;5097214;28;20543;-62
2022/03/11 02:04:38;;;;;;;12.37;6.17;;;;;;;-4.70;79.09;100371.31;5098597;28;20460;-55
2022/03/11 02:07:06;;;;;;;6.43;3.57;;;;;;;-4.74;77.98;100363.75;5096140;28;20491;-62
2022/03/11 02:09:33;;;;;;;7.40;3.73;;;;;;;-4.75;78.39;100369.59;5099516;28;20460;-65
2022/03/11 02:11:59;;;;;;;7.70;3.00;;;;;;;-4.89;77.22;100366.94;5097462;28;20451;-55
2022/03/11 02:14:26;;;;;;;3.87;2.50;;;;;;;-4.82;77.64;100364.53;5096656;28;20464;-55
2022/03/11 02:16:53;;;;;;;6.33;3.40;;;;;;;-4.88;77.15;100369.47;5095666;28;20475;-61
2022/03/11 02:19:24;;;;;;;3.93;1.77;;;;;;;-4.80;77.36;100369.53;5095524;28;20456;-62
2022/03/11 02:21:54;;;;;;;7.53;4.07;;;;;;;-4.76;78.15;100362.94;5096291;28;20472;-55
2022/03/11 02:24:27;;;;;;;8.00;4.33;;;;;;;-4.79;78.67;100364.56;5096686;28;20428;-62
2022/03/11 02:26:55;;;;;;;7.00;4.10;;;;;;;-4.89;77.89;100367.75;5095698;28;20544;-63
2022/03/11 02:29:22;;;;;;;6.87;3.93;;;;;;;-4.79;77.96;100369.56;5095536;28;20836;-63
2022/03/11 02:31:48;;;;;;;5.93;3.73;;;;;;;-4.86;78.08;100365.34;5095594;28;20475;-54
2022/03/11 02:34:16;;;;;;;4.47;2.90;;;;;;;-4.72;78.72;100367.13;5094673;28;20463;-54
2022/03/11 02:36:43;;;;;;;6.87;3.33;;;;;;;-4.91;77.80;100373.59;5096636;28;20555;-54
2022/03/11 02:39:10;;;;;;;6.60;2.90;;;;;;;-4.89;77.67;100365.28;5097073;28;20455;-54
2022/03/11 02:41:42;;;;;;;6.57;3.77;;;;;;;-4.90;78.53;100366.09;5095857;28;20495;-54
2022/03/11 02:44:09;;;;;;;7.07;4.17;;;;;;;-4.83;76.87;100372.84;5096898;28;20480;-54
2022/03/11 02:46:38;;;;;;;6.43;2.60;;;;;;;-4.74;76.90;100381.22;5096397;28;20484;-62
2022/03/11 02:49:05;;;;;;;4.90;2.80;;;;;;;-4.82;76.15;100383.66;5095874;28;20832;-58
2022/03/11 02:51:33;;;;;;;4.63;3.30;;;;;;;-4.81;76.64;100386.16;5095418;28;20476;-54
2022/03/11 02:54:00;;;;;;;3.13;2.10;;;;;;;-4.76;75.46;100397.84;5096404;28;20444;-62
2022/03/11 02:56:27;;;;;;;4.27;2.40;;;;;;;-4.69;73.96;100394.59;5096548;28;20472;-62
2022/03/11 02:58:55;;;;;;;2.33;1.77;;;;;;;-4.64;74.48;100398.81;5094856;28;20448;-62
2022/03/11 03:01:22;;;;;;;3.80;2.60;;;;;;;-4.78;74.32;100401.16;5094383;28;20479;-55
2022/03/11 03:03:49;;;;;;;5.47;3.10;;;;;;;-4.78;74.48;100396.16;5097619;28;20970;-55
2022/03/11 03:06:16;;;;;;;4.37;2.73;;;;;;;-4.71;73.54;100396.22;5095494;28;20492;-62
2022/03/11 03:08:44;;;;;;;8.83;4.13;;;;;;;-4.79;73.99;100398.66;5095240;28;20853;-54
2022/03/11 03:11:11;;;;;;;7.53;3.60;;;;;;;-4.72;74.62;100402.03;5095245;28;20535;-61
2022/03/11 03:13:38;;;;;;;4.93;2.83;;;;;;;-4.74;74.71;100394.56;5095620;28;20518;-61
2022/03/11 03:16:07;;;;;;;6.47;3.07;;;;;;;-4.82;74.50;100396.97;5096663;28;20476;-54
2022/03/11 03:18:34;;;;;;;4.33;2.80;;;;;;;-4.73;73.77;100397.88;5095092;28;20452;-55
2022/03/11 03:21:01;;;;;;;4.23;2.67;;;;;;;-4.83;72.93;100400.28;5094986;28;20475;-54
2022/03/11 03:23:28;;;;;;;4.90;2.50;;;;;;;-4.89;73.76;100397.69;5095675;28;20440;-55
2022/03/11 03:25:55;;;;;;;9.47;3.37;;;;;;;-4.88;74.74;100394.41;5094048;28;20494;-62
2022/03/11 03:28:23;;;;;;;4.83;2.67;;;;;;;-4.83;74.41;100396.94;5095000;28;20467;-62
2022/03/11 03:30:50;;;;;;;3.93;2.43;;;;;;;-4.82;74.88;100399.44;5095957;28;20479;-55
2022/03/11 03:33:19;;;;;;;6.23;2.77;;;;;;;-4.88;75.20;100409.38;5095397;28;20467;-61
2022/03/11 03:35:46;;;;;;;5.37;2.87;;;;;;;-4.93;75.18;100405.97;5095311;28;20480;-55
2022/03/11 03:38:12;;;;;;;6.47;3.13;;;;;;;-4.83;75.43;100401.91;5094454;28;20479;-55
2022/03/11 03:40:40;;;;;;;5.70;2.73;;;;;;;-4.89;73.20;100407.66;5095410;28;20494;-62
2022/03/11 03:43:07;;;;;;;6.10;3.20;;;;;;;-4.85;72.63;100406.91;5094199;28;20451;-62
2022/03/11 03:45:35;;;;;;;8.70;3.37;;;;;;;-4.99;73.50;100402.56;5092962;28;20476;-62
2022/03/11 03:48:03;;;;;;;8.37;3.00;;;;;;;-4.91;73.56;100406.84;5094854;28;20444;-55
2022/03/11 03:50:31;;;;;;;6.73;3.17;;;;;;;-4.96;74.40;100400.94;5095586;28;20451;-55
2022/03/11 03:52:59;;;;;;;5.50;3.50;;;;;;;-5.09;74.22;100409.09;5095102;28;20452;-54
2022/03/11 03:55:26;;;;;;;9.80;3.97;;;;;;;-5.33;75.49;100404.63;5094373;28;20472;-62
2022/03/11 03:57:53;;;;;;;8.03;3.70;;;;;;;-5.28;75.24;100398.88;5093308;28;20463;-54
2022/03/11 04:00:20;;;;;;;8.90;3.93;;;;;;;-5.18;75.61;100404.00;5093154;28;21012;-55
2022/03/11 04:02:47;;;;;;;6.43;3.53;;;;;;;-5.33;76.25;100405.47;5095537;28;20470;-62
2022/03/11 04:05:16;;;;;;;8.07;3.77;;;;;;;-5.47;76.33;100407.78;5094260;28;20493;-54
2022/03/11 04:07:45;;;;;;;7.30;3.57;;;;;;;-5.22;76.63;100412.25;5093796;28;20559;-62
2022/03/11 04:10:14;;;;;;;5.93;3.50;;;;;;;-5.37;75.99;100410.41;5097142;28;20486;-62
2022/03/11 04:12:41;;;;;;;7.27;3.50;;;;;;;-5.22;76.25;100413.09;5096992;28;20988;-56
2022/03/11 04:15:09;;;;;;;7.10;3.87;;;;;;;-5.29;76.05;100417.16;5094875;28;20471;-63
2022/03/11 04:17:36;;;;;;;8.83;4.30;;;;;;;-5.14;76.44;100410.72;5097658;28;20466;-63
2022/03/11 04:20:04;;;;;;;8.83;4.33;;;;;;;-5.34;76.30;100418.75;5098593;28;20463;-63
2022/03/11 04:22:31;;;;;;;8.33;3.93;;;;;;;-5.21;76.60;100413.91;5099085;28;20463;-63
2022/03/11 04:24:59;;;;;;;8.50;4.43;;;;;;;-5.08;76.74;100415.78;5095087;28;20478;-63
2022/03/11 04:27:27;;;;;;;9.20;4.60;;;;;;;-5.19;76.41;100417.28;5097610;28;20475;-63
2022/03/11 04:29:55;;;;;;;9.03;4.63;;;;;;;-5.26;76.26;100417.19;5100766;28;20463;-63
2022/03/11 04:32:22;;;;;;;9.93;4.60;;;;;;;-5.42;75.28;100425.28;5098597;28;20494;-55
2022/03/11 04:34:49;;;;;;;10.47;4.40;;;;;;;-5.50;75.91;100416.84;5098359;28;20488;-55
2022/03/11 04:37:16;;;;;;;8.07;4.30;;;;;;;-5.28;76.34;100428.81;5100406;28;20446;-56
2022/03/11 04:39:43;;;;;;;9.20;4.13;;;;;;;-5.21;75.85;100428.88;5099064;28;20491;-62
2022/03/11 04:42:11;;;;;;;9.03;4.17;;;;;;;-5.14;75.79;100430.66;5097371;28;20820;-55
2022/03/11 04:44:38;;;;;;;8.97;4.23;;;;;;;-5.21;75.50;100434.69;5099634;28;20452;-62
2022/03/11 04:47:05;;;;;;;6.20;4.13;;;;;;;-5.25;75.93;100436.31;5098511;28;20490;-63
2022/03/11 04:49:33;;;;;;;9.63;4.13;;;;;;;-5.13;75.53;100433.16;5098908;28;20470;-63
2022/03/11 04:52:01;;;;;;;9.13;4.23;;;;;;;-5.02;75.45;100430.81;5097388;28;20456;-63
2022/03/11 04:54:28;;;;;;;9.87;4.73;;;;;;;-5.26;76.43;100429.66;5098505;28;20456;-55
2022/03/11 04:56:55;;;;;;;11.67;5.20;;;;;;;-5.34;75.44;100437.84;5098765;28;20424;-55
2022/03/11 04:59:23;;;;;;;9.77;5.30;;;;;;;-5.10;75.02;100432.34;5098737;28;20455;-63
2022/03/11 05:01:51;;;;;;;8.80;4.67;;;;;;;-5.33;75.15;100432.88;5098270;28;20480;-55
2022/03/11 05:04:18;;;;;;;10.77;4.90;;;;;;;-5.33;74.79;100425.41;5097868;28;20454;-56
2022/03/11 05:06:45;;;;;;;10.50;4.93;;;;;;;-5.27;75.87;100427.97;5097897;28;20802;-63
2022/03/11 05:09:12;;;;;;;10.13;4.80;;;;;;;-5.32;74.85;100431.25;5098199;28;20440;-56
2022/03/11 05:11:40;;;;;;;9.80;4.00;;;;;;;-5.03;75.02;100431.63;5097912;28;20486;-63
2022/03/11 05:14:06;;;;;;;7.87;4.53;;;;;;;-5.14;74.84;100430.66;5097971;28;20451;-63
2022/03/11 05:16:35;;;;;;;8.50;3.70;;;;;;;-5.18;74.75;100428.91;5096708;28;20460;-55
2022/03/11 05:19:02;;;;;;;6.43;3.87;;;;;;;-5.13;75.25;100424.84;5099521;28;20448;-56
2022/03/11 05:21:29;;;;;;;7.47;4.00;;;;;;;-4.99;75.12;100435.00;5097252;28;20481;-63
2022/03/11 05:23:57;;;;;;;6.57;3.93;;;;;;;-4.87;76.07;100433.47;5099056;28;20444;-62
2022/03/11 05:26:28;;;;;;;9.47;4.50;;;;;;;-4.66;71.96;100437.88;5096744;28;21008;-63
2022/03/11 05:28:58;;;;;;;10.00;4.37;;;;;;;-4.67;71.65;100438.69;5098221;28;20444;-62
2022/03/11 05:31:26;;;;;;;7.87;4.30;;;;;;;-4.65;71.97;100438.75;5095281;28;20468;-63
2022/03/11 05:33:55;;;;;;;9.70;4.57;;;;;;;-4.55;71.08;100438.00;5099644;28;20455;-55
2022/03/11 05:36:23;;;;;;;8.73;4.50;;;;;;;-4.54;72.96;100444.66;5099434;28;20478;-62
2022/03/11 05:38:52;;;;;;;9.17;4.30;;;;;;;-4.66;74.92;100439.53;5094945;28;20444;-56
2022/03/11 05:41:19;;;;;;;9.77;4.40;;;;;;;-4.54;75.05;100442.16;5098514;28;20474;-55
2022/03/11 05:43:46;;;;;;;8.37;4.10;;;;;;;-4.49;75.86;100442.22;5098988;28;20451;-56
2022/03/11 05:46:13;;;;;;;8.47;4.17;;;;;;;-4.44;75.86;100430.63;5097166;28;20444;-55
2022/03/11 05:48:40;;;;;;;6.97;3.73;;;;;;;-4.40;76.23;100438.16;5096239;28;20530;-61
2022/03/11 05:51:08;;;;;;;8.27;4.23;;;;;;;-4.32;74.86;100438.25;5097055;28;20503;-55
2022/03/11 05:53:35;;;;;;;7.33;3.90;;;;;;;-4.35;75.34;100434.06;5096576;28;20543;-54
2022/03/11 05:56:02;;;;;;;8.27;4.23;;;;;;;-4.29;74.68;100439.94;5096305;28;20480;-55
2022/03/11 05:58:29;;;;;;;8.50;4.23;;;;;;;-4.05;74.06;100435.16;5095550;28;20988;-57
2022/03/11 06:00:56;;;;;;;8.50;4.80;;;;;;;-3.79;72.69;100442.03;5094564;28;20471;-62
2022/03/11 06:03:23;;;;;;;9.77;4.63;;;;;;;-3.43;71.49;100437.31;5097106;28;20480;-62
2022/03/11 06:05:50;;;;;;;11.40;4.53;;;;;;;-3.13;67.65;100445.81;5095975;28;20489;-55
2022/03/11 06:08:19;;;;;;;7.53;4.03;;;;;;;-2.97;66.59;100447.59;5095946;28;20488;-61
2022/03/11 06:10:47;;;;;;;7.10;4.23;;;;;;;-2.67;65.98;100450.22;5095798;28;20512;-62
2022/03/11 06:13:14;;;;;;;7.00;4.27;;;;;;;-2.49;65.02;100446.91;5096652;28;20448;-63
2022/03/11 06:15:41;;;;;;;6.77;3.77;;;;;;;-2.23;66.89;100447.81;5092126;28;20484;-54
2022/03/11 06:18:08;;;;;;;12.67;4.83;;;;;;;-1.97;63.51;100445.34;5095520;28;20458;-56
2022/03/11 06:20:35;;;;;;;8.27;4.40;;;;;;;-2.12;66.65;100441.16;5092869;28;20484;-66
2022/03/11 06:23:02;;;;;;;7.67;4.43;;;;;;;-1.86;61.92;100446.19;5093653;28;20448;-63
2022/03/11 06:25:30;;;;;;;9.53;4.40;;;;;;;-1.72;61.58;100451.19;5091865;28;20460;-63
2022/03/11 06:27:57;;;;;;;8.10;4.43;;;;;;;-1.43;63.95;100453.66;5094119;28;20492;-55
2022/03/11 06:30:24;;;;;;;8.47;4.33;;;;;;;-1.43;61.10;100448.63;5092819;28;20480;-64
2022/03/11 06:32:51;;;;;;;8.93;4.07;;;;;;;-1.22;60.67;100456.97;5090804;28;20447;-56
2022/03/11 06:35:19;;;;;;;7.43;3.90;;;;;;;-1.25;59.49;100452.81;5092100;28;20489;-64
2022/03/11 06:37:50;;;;;;;12.83;4.57;;;;;;;-1.28;56.70;100457.84;5093876;28;20452;-56
2022/03/11 06:40:18;;;;;;;9.97;5.27;;;;;;;-1.02;56.39;100461.94;5095225;28;20528;-57
2022/03/11 06:42:48;;;;;;;8.23;4.00;;;;;;;-0.79;55.41;100460.19;5093886;28;20448;-57
2022/03/11 06:45:16;;;;;;;6.47;3.70;;;;;;;-0.95;54.85;100466.13;5095581;28;20483;-57
2022/03/11 06:47:44;;;;;;;7.73;4.13;;;;;;;-1.01;54.80;100459.44;5094650;28;20570;-57
2022/03/11 06:50:11;;;;;;;7.77;4.07;;;;;;;-0.55;53.91;100466.81;5095252;28;20523;-65
2022/03/11 06:52:38;;;;;;;8.20;3.83;;;;;;;-0.62;53.86;100464.31;5092727;28;20452;-57
2022/03/11 06:55:07;;;;;;;7.10;3.90;;;;;;;-0.55;54.14;100465.97;5095049;28;20475;-65
2022/03/11 06:57:34;;;;;;;6.97;3.97;;;;;;;-0.83;55.83;100460.22;5093833;28;20455;-57
2022/03/11 07:00:03;;;;;;;7.57;4.33;;;;;;;-0.89;54.27;100461.06;5093524;28;20498;-57
2022/03/11 07:02:31;;;;;;;8.47;3.97;;;;;;;-1.00;56.37;100467.81;5094311;28;20451;-57
2022/03/11 07:04:58;;;;;;;6.60;3.90;;;;;;;-1.60;58.38;100461.22;5094256;28;20480;-66
2022/03/11 07:07:28;;;;;;;8.10;3.57;;;;;;;-1.12;55.41;100458.63;5093687;28;21028;-57
2022/03/11 07:09:55;;;;;;;6.20;3.80;;;;;;;-1.09;55.06;100451.09;5093483;28;20490;-65
2022/03/11 07:12:22;;;;;;;7.90;3.63;;;;;;;-1.17;51.87;100456.13;5094422;28;20452;-57
2022/03/11 07:14:49;;;;;;;5.53;3.57;;;;;;;-0.48;53.16;100465.09;5093397;28;20480;-58
2022/03/11 07:17:18;;;;;;;6.60;3.67;;;;;;;-0.50;51.27;100465.09;5093476;28;20452;-58
2022/03/11 07:19:45;;;;;;;8.03;4.03;;;;;;;-0.47;52.78;100464.25;5094030;28;20452;-66
2022/03/11 07:22:11;;;;;;;5.70;3.30;;;;;;;-1.44;51.67;100466.22;5092239;28;20451;-58
2022/03/11 07:24:39;;;;;;;7.10;3.70;;;;;;;-1.48;53.19;100464.56;5093338;28;20448;-58
2022/03/11 07:27:06;;;;;;;5.50;3.37;;;;;;;-1.66;54.84;100465.38;5093184;28;20491;-65
2022/03/11 07:29:34;;;;;;;4.57;3.07;;;;;;;-1.26;53.32;100471.19;5093981;28;20885;-66
2022/03/11 07:32:01;;;;;;;7.53;3.70;;;;;;;-1.17;54.03;100463.66;5093447;28;20509;-58
2022/03/11 07:34:30;;;;;;;9.13;3.63;;;;;;;-1.36;54.47;100469.56;5093952;28;20472;-68
2022/03/11 07:36:58;;;;;;;11.20;3.90;;;;;;;-1.91;52.86;100469.56;5093841;28;20874;-59
2022/03/11 07:39:25;;;;;;;5.73;3.30;;;;;;;-2.16;54.01;100468.69;5094641;28;20999;-58
2022/03/11 07:41:52;;;;;;;8.00;3.80;;;;;;;-1.58;54.41;100468.72;5094636;28;20468;-59
2022/03/11 07:44:20;;;;;;;7.40;4.53;;;;;;;-1.20;53.70;100460.31;5094779;28;20482;-59
2022/03/11 07:46:48;;;;;;;6.30;3.67;;;;;;;-0.93;53.97;100469.47;5096352;28;20888;-67
2022/03/11 07:49:15;;;;;;;9.67;5.13;;;;;;;-0.92;53.05;100463.59;5098814;28;20837;-59
2022/03/11 07:51:43;;;;;;;8.60;4.33;;;;;;;-1.25;54.16;100460.34;5095768;28;20475;-58
2022/03/11 07:54:10;;;;;;;9.27;3.80;;;;;;;-1.72;54.04;100465.38;5098184;28;20466;-59
2022/03/11 07:56:38;;;;;;;7.60;3.63;;;;;;;-1.69;53.36;100461.19;5096944;28;20841;-58
2022/03/11 07:59:07;;;;;;;6.27;2.07;;;;;;;-1.61;53.00;100462.03;5096890;28;20444;-67
2022/03/11 08:01:35;;;;;;;6.53;3.40;;;;;;;-1.89;53.35;100456.22;5096586;28;20471;-58
2022/03/11 08:04:04;;;;;;;6.97;4.13;;;;;;;-1.86;53.25;100470.41;5098040;28;20447;-59
2022/03/11 08:06:33;;;;;;;10.40;4.07;;;;;;;-1.49;55.02;100467.88;5095849;28;20501;-66
2022/03/11 08:09:02;;;;;;;6.67;3.13;;;;;;;-1.56;55.20;100461.22;5096239;28;20497;-58
2022/03/11 08:11:29;;;;;;;3.83;2.67;;;;;;;-1.98;53.81;100473.72;5099220;28;20479;-58
2022/03/11 08:13:56;;;;;;;8.60;3.37;;;;;;;-1.93;53.72;100458.69;5097541;28;20837;-58
2022/03/11 08:16:23;;;;;;;7.23;3.27;;;;;;;-1.70;51.94;100457.03;5096807;28;20467;-67
2022/03/11 08:18:50;;;;;;;5.50;3.10;;;;;;;-1.28;51.91;100462.88;5097595;28;20470;-66
2022/03/11 08:21:17;;;;;;;4.87;3.30;;;;;;;-1.03;51.98;100462.78;5096231;28;20475;-67
2022/03/11 08:23:44;;;;;;;5.93;3.30;;;;;;;-0.87;51.93;100461.06;5098194;28;20452;-60
2022/03/11 08:26:13;;;;;;;6.70;3.70;;;;;;;-0.85;49.87;100472.78;5097451;28;20493;-59
2022/03/11 08:28:40;;;;;;;5.67;3.23;;;;;;;-0.86;50.62;100461.06;5097153;28;20467;-58
2022/03/11 08:37:51;;;;;;;6.23;3.23;;;;;;;-1.50;49.52;100451.19;5095892;28;20522;-57
2022/03/11 09:01:00;;;;;;;8.93;3.10;;;;;;;-1.26;48.53;100461.16;5095381;28;20478;-56
2022/03/11 09:03:27;;;;;;;5.90;3.07;;;;;;;-0.68;52.11;100455.13;5094845;28;20448;-64
2022/03/11 09:05:54;;;;;;;4.80;2.77;;;;;;;0.10;48.90;100457.19;5094923;28;20488;-56
2022/03/11 09:08:21;;;;;;;6.07;3.50;;;;;;;0.27;47.87;100451.22;5094212;28;20503;-56
2022/03/11 09:10:49;;;;;;;7.47;3.50;;;;;;;0.83;49.58;100449.84;5095875;28;20498;-60
2022/03/11 09:13:16;;;;;;;6.17;3.20;;;;;;;0.70;45.96;100453.31;5095414;28;20539;-63
2022/03/11 09:15:43;;;;;;;5.87;3.33;;;;;;;1.19;42.51;100457.81;5094403;28;21024;-57
2022/03/11 09:18:12;;;;;;;6.73;3.27;;;;;;;2.20;46.14;100447.16;5096335;28;20454;-57
2022/03/11 09:20:40;;;;;;;8.40;3.50;;;;;;;2.92;47.02;100443.38;5095734;28;20214;-64
2022/03/11 09:23:07;;;;;;;7.13;3.03;;;;;;;1.79;41.82;100435.19;5094375;28;20210;-64
2022/03/11 09:25:34;;;;;;;7.70;3.83;;;;;;;1.95;46.61;100436.66;5094595;28;20226;-56
2022/03/11 09:28:00;;;;;;;5.83;3.67;;;;;;;2.66;41.25;100435.47;5096350;28;20617;-56
2022/03/11 09:30:27;;;;;;;3.70;2.63;;;;;;;1.80;41.45;100426.75;5095126;28;20229;-64
2022/03/11 09:32:54;;;;;;;8.67;4.03;;;;;;;2.45;45.51;100429.13;5095819;28;20206;-64
2022/03/11 09:35:23;;;;;;;6.87;3.67;;;;;;;2.84;42.67;100430.06;5095915;28;20320;-56
2022/03/11 09:37:49;;;;;;;6.03;3.27;;;;;;;2.72;41.53;100426.06;5094229;28;20213;-64
2022/03/11 09:40:17;;;;;;;6.70;3.93;;;;;;;2.00;41.95;100419.72;5094780;28;20245;-65
2022/03/11 09:42:45;;;;;;;5.23;3.27;;;;;;;2.73;42.14;100421.84;5096672;28;20202;-58
2022/03/11 09:45:12;;;;;;;5.23;3.40;;;;;;;2.14;44.11;100421.22;5097934;28;20226;-59
2022/03/11 09:47:40;;;;;;;6.10;3.43;;;;;;;2.36;42.90;100407.38;5096827;28;20222;-64
2022/03/11 09:50:08;;;;;;;9.17;5.03;;;;;;;2.69;44.84;100411.00;5095255;28;20229;-57
2022/03/11 09:52:36;;;;;;;8.20;4.60;;;;;;;2.87;45.05;100404.75;5097583;28;20213;-57
2022/03/11 09:55:04;;;;;;;7.60;4.03;;;;;;;3.03;44.45;100409.53;5095179;28;20232;-64
2022/03/11 09:57:31;;;;;;;7.70;4.33;;;;;;;1.85;44.08;100404.84;5096484;28;20198;-59
2022/03/11 09:59:58;;;;;;;7.43;4.03;;;;;;;1.71;45.67;100406.75;5095642;28;20221;-57
2022/03/11 10:02:25;;;;;;;6.73;3.80;;;;;;;1.91;47.01;100404.75;5094803;28;20225;-57
2022/03/11 10:04:56;;;;;;;7.47;4.27;;;;;;;2.55;44.48;100415.44;5095561;28;20315;-57
2022/03/11 10:07:27;;;;;;;6.87;4.03;;;;;;;2.53;43.92;100403.72;5094779;28;20216;-64
2022/03/11 10:09:56;;;;;;;7.43;4.13;;;;;;;2.37;47.95;100401.47;5094725;28;20214;-57
2022/03/11 10:12:26;;;;;;;7.17;3.93;;;;;;;2.56;42.96;100406.19;5095985;28;20624;-56
2022/03/11 10:15:01;;;;;;;8.17;4.20;;;;;;;1.66;45.22;100403.44;5096859;28;20226;-65
2022/03/11 10:17:38;;;;;;;6.67;4.23;;;;;;;3.12;48.54;100399.22;5094765;28;20251;-64
2022/03/11 10:20:07;;;;;;;8.07;4.20;;;;;;;4.27;47.41;100401.63;5095515;28;20217;-58
2022/03/11 10:22:35;;;;;;;12.57;5.80;;;;;;;4.37;46.03;100394.66;5093528;28;20198;-66
2022/03/11 10:25:09;;;;;;;6.90;4.30;;;;;;;2.84;44.06;100404.81;5095019;28;20222;-64
2022/03/11 10:27:55;;;;;;;7.73;4.03;;;;;;;2.85;48.43;100395.53;5094356;28;20201;-56
2022/03/11 10:30:22;;;;;;;7.57;4.67;;;;;;;3.10;48.48;100390.84;5096258;28;20218;-57
2022/03/11 10:32:50;;;;;;;7.53;4.40;;;;;;;2.83;43.32;100388.00;5093942;28;20205;-64
2022/03/11 10:35:19;;;;;;;8.60;5.30;;;;;;;2.94;43.96;100382.75;5094427;28;20714;-65
2022/03/11 10:38:01;;;;;;;8.50;4.87;;;;;;;3.18;45.91;100383.94;5093851;28;20282;-64
2022/03/11 10:40:32;;;;;;;8.87;4.40;;;;;;;3.12;46.16;100389.13;5094791;28;20785;-57
2022/03/11 10:43:17;;;;;;;9.23;4.90;;;;;;;2.96;46.85;100388.59;5093876;28;20198;-65
2022/03/11 10:45:50;;;;;;;8.40;4.90;;;;;;;3.13;48.96;100383.19;5095525;28;20699;-65
2022/03/11 10:48:19;;;;;;;9.80;4.77;;;;;;;2.75;48.63;100382.25;5094333;28;20230;-65
2022/03/11 10:50:47;;;;;;;9.17;5.10;;;;;;;2.55;49.94;100382.63;5094094;28;20229;-64
2022/03/11 10:53:14;;;;;;;9.03;4.83;;;;;;;2.89;49.01;100380.31;5094725;28;20710;-57
2022/03/11 10:55:44;;;;;;;8.17;4.50;;;;;;;2.76;46.59;100381.38;5093587;28;20222;-56
2022/03/11 10:58:16;;;;;;;11.07;5.83;;;;;;;3.22;51.78;100385.50;5094163;28;20198;-56
2022/03/11 11:00:44;;;;;;;7.90;4.80;;;;;;;3.30;46.85;100368.50;5094246;28;20727;-64
2022/03/11 11:03:13;;;;;;;8.10;4.27;;;;;;;2.94;45.81;100370.94;5094142;28;20236;-56
2022/03/11 11:05:41;;;;;;;7.40;4.17;;;;;;;2.80;44.00;100367.03;5094325;28;20217;-65
2022/03/11 11:08:09;;;;;;;7.07;4.50;;;;;;;2.28;45.19;100363.78;5093353;28;20229;-64
2022/03/11 11:10:38;;;;;;;8.93;4.30;;;;;;;2.14;46.20;100360.66;5093204;28;20719;-57
2022/03/11 11:13:09;;;;;;;7.70;4.50;;;;;;;2.16;48.81;100351.38;5093937;28;20206;-57
2022/03/11 11:15:38;;;;;;;8.07;5.07;;;;;;;1.95;46.28;100353.41;5093127;28;20308;-58
2022/03/11 11:18:14;;;;;;;7.27;4.20;;;;;;;1.98;50.00;100355.88;5093106;28;20206;-57
2022/03/11 11:20:46;;;;;;;9.80;4.67;;;;;;;1.74;49.49;100356.25;5097050;28;20703;-64
2022/03/11 11:23:15;;;;;;;10.40;4.80;;;;;;;1.65;50.04;100347.16;5099068;28;20207;-57
2022/03/11 11:25:44;;;;;;;9.00;5.20;;;;;;;1.66;51.21;100337.91;5097713;28;20206;-56
2022/03/11 11:28:16;;;;;;;10.43;5.57;;;;;;;1.48;51.81;100337.31;5097267;28;20234;-65
2022/03/11 11:30:45;;;;;;;8.70;5.03;;;;;;;1.54;52.48;100333.88;5098152;28;20239;-64
2022/03/11 11:33:13;;;;;;;9.00;4.77;;;;;;;1.80;52.46;100325.91;5097361;28;20228;-56
2022/03/11 11:35:41;;;;;;;10.07;5.80;;;;;;;2.08;52.32;100325.47;5097746;28;20244;-65
2022/03/11 11:38:29;;;;;;;8.10;5.07;;;;;;;1.87;52.68;100319.09;5097936;28;20217;-65
2022/03/11 11:40:58;;;;;;;10.50;5.17;;;;;;;2.17;50.55;100317.72;5097131;28;20640;-65
2022/03/11 11:43:29;;;;;;;10.20;4.70;;;;;;;2.66;50.35;100314.28;5098326;28;20216;-65
2022/03/11 11:46:03;;;;;;;10.77;5.43;;;;;;;3.07;49.79;100315.94;5097356;28;20674;-57
2022/03/11 11:49:02;;;;;;;10.03;4.77;;;;;;;3.36;50.06;100315.28;5095293;28;20235;-65
2022/03/11 11:51:55;;;;;;;8.57;5.10;;;;;;;3.69;50.98;100312.81;5097096;28;20225;-63
2022/03/11 11:54:45;;;;;;;9.33;5.20;;;;;;;3.32;49.76;100313.69;5097555;28;20213;-64
2022/03/11 11:57:26;;;;;;;7.37;4.37;;;;;;;3.07;47.69;100310.88;5096283;28;20220;-57
2022/03/11 11:59:56;;;;;;;17.90;7.07;;;;;;;3.08;49.15;100311.69;5098080;28;20252;-57